27 maja 2022

Czas Kod Pogoda Temp. Widoczność Sufit Wiatr METAR/SPECI
11:00 am
V
59 °F 20 mi 12.000 ft 180° 180° 5 kt METAR CYEG 271700Z 18005KT 140V200 20SM SCT091 BKN120 OVC170 15/04 A2961 RMK AC4AS2AC2 VIRGA ALQDS SLP034 DENSITY ALT 3300FT
10:00 am
V
57 °F 20 mi 12.000 ft 180° 180° 8 kt METAR CYEG 271600Z 18008KT 130V190 20SM SCT100 BKN120 OVC230 14/04 A2962 RMK AC4AS3CI1 VIRGA OHD SLP036 DENSITY ALT 3200FT
9:00 am
V
57 °F 20 mi 17.000 ft 160° 160° 9 kt METAR CYEG 271500Z 16009KT 20SM BKN170 OVC230 14/04 A2963 RMK AS7CI1 SLP038 DENSITY ALT 3200FT
8:00 am
V
55 °F 20 mi 14.000 ft 130° 130° 13 - 19 kt METAR CYEG 271400Z 13013G19KT 20SM BKN140 BKN240 13/03 A2964 RMK AS6CI1 SLP042 DENSITY ALT 3100FT
7:00 am
V
54 °F 20 mi 17.000 ft 120° 120° 9 kt METAR CYEG 271300Z 12009KT 20SM BKN170 BKN240 12/03 A2966 RMK AS5CI2 SLP047 DENSITY ALT 3000FT
6:00 am
V
52 °F 20 mi 17.000 ft 120° 120° 5 kt METAR CYEG 271200Z 12005KT 20SM FEW130 BKN170 BKN240 11/03 A2967 RMK AC1AS5CI2 AC TR SLP053 DENSITY ALT 2800FT
5:00 am
V
52 °F 20 mi 19.000 ft 090° 090° 9 kt METAR CYEG 271100Z CCA 09009KT 20SM FEW130 BKN190 11/03 A2969 RMK AC1AS5 AC TR SLP059 DENSITY ALT 2800FT
4:00 am
V
52 °F 20 mi - 080° 080° 7 kt METAR CYEG 271000Z 08007KT 20SM FEW130 SCT230 11/03 A2972 RMK AC1CI4 AC TR SLP069 DENSITY ALT 2700FT
3:00 am
V
54 °F 20 mi - 080° 080° 8 kt METAR CYEG 270900Z 08008KT 20SM FEW130 SCT240 12/03 A2973 RMK AC1CI3 AC TR SLP074 DENSITY ALT 2800FT
2:00 am
V
55 °F 20 mi - 090° 090° 9 kt METAR CYEG 270800Z 09009KT 20SM FEW130 FEW240 13/03 A2974 RMK AC2CI1 CI TR SLP077 DENSITY ALT 3000FT
1:00 am
V
57 °F 20 mi 13.000 ft 100° 100° 9 kt METAR CYEG 270700Z 10009KT 20SM BKN130 14/04 A2975 RMK AC7 SLP080 DENSITY ALT 3100FT
12:00 am
V
59 °F 20 mi 13.000 ft 100° 100° 8 kt METAR CYEG 270600Z 10008KT 20SM BKN130 15/03 A2976 RMK AC7 SLP084 DENSITY ALT 3200FT

26 maja 2022

Czas Kod Pogoda Temp. Widoczność Sufit Wiatr METAR/SPECI
11:00 pm
V
59 °F 20 mi 13.000 ft 070° 070° 7 kt METAR CYEG 270500Z 07007KT 20SM BKN130 15/03 A2976 RMK AC7 SLP085 DENSITY ALT 3200FT
10:00 pm
V
61 °F 20 mi 13.000 ft 070° 070° 8 kt METAR CYEG 270400Z 07008KT 20SM BKN130 16/02 A2977 RMK AC7 SLP087 DENSITY ALT 3300FT
9:00 pm
V
64 °F 20 mi 13.000 ft 060° 060° 8 kt METAR CYEG 270300Z 06008KT 20SM FEW080 BKN130 18/02 A2977 RMK CU1AC7 CU TR SLP086 DENSITY ALT 3400FT
8:00 pm
V
68 °F 20 mi 23.000 ft 050° 050° 5 kt METAR CYEG 270200Z 05005KT 040V100 20SM FEW080 FEW100 SCT120 BKN230 20/00 A2977 RMK CU1AS1AC3CI2 CU TR SLP088 DENSITY ALT 3700FT
7:00 pm
V
68 °F 20 mi 23.000 ft 330° 330° 5 kt METAR CYEG 270100Z 33005KT 280V350 20SM FEW080 SCT100 SCT120 BKN230 20/01 A2978 RMK CU2AS1AC1CI2 SLP094 DENSITY ALT 3700FT
6:00 pm
V
68 °F 20 mi 12.000 ft 320° 320° 4 kt METAR CYEG 270000Z 32004KT 210V350 20SM SCT080 SCT100 BKN120 BKN230 20/00 A2979 RMK CU3AS1AC3CI1 CI TR SLP102 DENSITY ALT 3700FT
5:00 pm
V
68 °F 20 mi 18.000 ft 090° 090° 5 kt METAR CYEG 262300Z 09005KT 090V150 20SM SCT080 BKN180 BKN230 20/01 A2980 RMK CU3AS4CI1 CI TR SLP105 DENSITY ALT 3700FT
4:00 pm
V
66 °F 20 mi 18.000 ft Var Var 3 kt METAR CYEG 262200Z VRB03KT 20SM SCT068 SCT120 BKN180 19/01 A2982 RMK CU4AC1AS3 AC TR SLP111 DENSITY ALT 3600FT
3:00 pm
V
66 °F 20 mi 10.000 ft 320° 320° 7 kt METAR CYEG 262100Z 32007KT 20SM SCT068 BKN100 19/03 A2983 RMK CU4AS3 SLP113 DENSITY ALT 3600FT
2:00 pm
V
66 °F 20 mi 10.000 ft 270° 270° 9 kt METAR CYEG 262000Z 27009KT 180V350 20SM SCT068 BKN100 BKN120 19/02 A2984 RMK CU4AS2AC1 SLP117 DENSITY ALT 3500FT
1:00 pm
V
64 °F 20 mi 6.000 ft 290° 290° 8 - 16 kt METAR CYEG 261900Z 29008G16KT 240V320 20SM BKN060 BKN150 BKN230 18/02 A2984 RMK CU5AS1CI1 CI TR SLP117 DENSITY ALT 3400FT
12:00 pm
V
63 °F 20 mi 5.000 ft 260° 260° 6 kt METAR CYEG 261800Z 26006KT 220V010 20SM BKN050 BKN120 BKN230 17/04 A2986 RMK CU6AC1CI1 CI TR SLP121 DENSITY ALT 3300FT
11:00 am
V
61 °F 20 mi 12.000 ft 260° 260° 6 kt METAR CYEG 261700Z CCA 26006KT 230V330 20SM SCT050 BKN120 BKN230 16/05 A2986 RMK CU4AC1CI2 TCU ASOCTD S SLP121 DENSITY ALT 3100FT
10:00 am
V
59 °F 20 mi - 280° 280° 7 kt METAR CYEG 261600Z 28007KT 20SM FEW050 FEW100 SCT230 15/06 A2987 RMK CU1AC1CI2 CU TR SLP123 DENSITY ALT 3000FT
9:00 am
V
57 °F 20 mi - 240° 240° 6 kt METAR CYEG 261500Z 24006KT 200V270 20SM FEW100 FEW230 14/07 A2987 RMK AC1CI1 CI TR SLP124 DENSITY ALT 2900FT
8:00 am
V
50 °F 20 mi - 260° 260° 6 kt METAR CYEG 261400Z 26006KT 20SM FEW100 FEW230 10/07 A2987 RMK AC1CI1 SLP125 DENSITY ALT 2400FT
7:00 am
V
43 °F 20 mi - 240° 240° 4 kt METAR CYEG 261300Z 24004KT 20SM FEW100 FEW230 06/06 A2986 RMK AC1CI1 CI TR SLP122
6:00 am
V
37 °F 15 mi - 220° 220° 3 kt METAR CYEG 261200Z 22003KT 15SM FEW100 FEW230 03/03 A2985 RMK AC1CI1 AC TR SLP122
5:00 am
V
39 °F 12 mi - 240° 240° 3 kt METAR CYEG 261100Z 24003KT 12SM MIFG FEW070 04/03 A2984 RMK AC1 AC TR SLP117
4:30 am
V
36 °F 20 mi - 260° 260° 3 kt METAR CYEG 261030Z 26003KT 20SM MIFG FEW070 02/02 A2983 RMK AC1 AC TR VIS E QUAD 1/2 SLP117
4:23 am
V
39 °F 20 mi - 270° 270° 4 kt METAR CYEG 261023Z CCA 27004KT 20SM R02/3000V6000FT/U MIFG FEW070 04/04 A2983 RMK AC1 AC TR FG RPDLY DSIPTG VIS E QUAD 1/2 SLP116
4:04 am
L
37 °F ½ mi - 250° 250° 2 kt METAR CYEG 261004Z 25002KT 1/2SM R02/5000VP6000FT/D FG FEW070 03/03 A2983 RMK AC1 AC TR SLP115
3:00 am
V
41 °F 20 mi - 260° 260° 3 kt METAR CYEG 260900Z 26003KT 20SM SCT070 05/04 A2981 RMK AC3 SLP109
2:00 am
V
43 °F 20 mi - 200° 200° 4 kt METAR CYEG 260800Z 20004KT 20SM FEW090 06/05 A2980 RMK AC2 SLP104
1:00 am
V
46 °F 20 mi 9.000 ft 020° 020° 6 kt METAR CYEG 260700Z 02006KT 20SM BKN090 08/06 A2980 RMK AC5 SLP103
12:00 am
V
48 °F 20 mi 12.000 ft 010° 010° 10 kt METAR CYEG 260600Z 01010KT 20SM FEW071CB SCT090 BKN120 09/07 A2979 RMK CB2AC2AC2 CB N MOV E SLP099 DENSITY ALT 2500FT

25 maja 2022

Czas Kod Pogoda Temp. Widoczność Sufit Wiatr METAR/SPECI
11:19 pm
V
50 °F 20 mi 12.000 ft 020° 020° 11 kt METAR CYEG 260519Z 02011KT 20SM SCT071CB BKN120 10/06 A2978 RMK CB3AC4 CB N MOV E SLP093 DENSITY ALT 2600FT
11:00 pm
V
50 °F 20 mi 7.100 ft 030° 030° 11 kt METAR CYEG 260500Z 03011KT 20SM TS BKN071CB BKN120 10/05 A2976 RMK CB6AC1 CB SH N MOV E OCNL LTGICCG NE SLP089 DENSITY ALT 2600FT
10:00 pm
V
61 °F 20 mi 7.100 ft Var Var 5 - 29 kt METAR CYEG 260400Z CCA VRB05G29KT 20SM TS BKN071CB BKN120 16/04 A2972 RMK CB6AC1 CB OHD ALQDS MOV E SH N + E QUAD OCNL LTGICCG N SLP072 DENSITY ALT 3300FT
9:43 pm
V
59 °F 20 mi 7.100 ft 340° 340° 8 kt METAR CYEG 260343Z 34008KT 320V100 20SM TS BKN071CB BKN100 15/05 A2972 RMK CB6AC1 CB OHD MOV E LTGIC PRESRR SLP072 DENSITY ALT 3200FT
9:00 pm
V
61 °F 20 mi - 080° 080° 8 kt METAR CYEG 260300Z 08008KT 20SM FEW071TCU SCT100 SCT160 16/04 A2969 RMK TCU2AC1AS1 AS TR VIRGA S QUAD SLP064 DENSITY ALT 3300FT
8:00 pm
V
64 °F 20 mi - 090° 090° 5 kt METAR CYEG 260200Z 09005KT 20SM FEW071TCU SCT230 18/04 A2970 RMK TCU1CI2 VIRGA SW QUAD SLP064 DENSITY ALT 3600FT
7:00 pm
V
66 °F 20 mi - 080° 080° 7 kt METAR CYEG 260100Z 08007KT 050V120 20SM FEW071TCU SCT200 19/04 A2970 RMK TCU2CI1 VIRGA S SLP067 DENSITY ALT 3700FT
6:00 pm
V
64 °F 20 mi - 080° 080° 11 kt METAR CYEG 260000Z 08011KT 20SM FEW071TCU SCT130 18/04 A2971 RMK TCU2AC1 SLP072 DENSITY ALT 3600FT
5:00 pm
V
66 °F 20 mi 9.000 ft 010° 010° 12 kt METAR CYEG 252300Z 01012KT 20SM SCT071TCU BKN090 BKN130 BKN220 19/04 A2972 RMK TCU4AC1AC1CI1 CI TR SLP076 DENSITY ALT 3600FT
4:00 pm
V
66 °F 20 mi 9.000 ft 150° 150° 9 kt METAR CYEG 252200Z 15009KT 010V180 20SM SCT064TCU BKN090 BKN220 19/01 A2972 RMK TCU4AC1CI2 VIRGA NW QUAD SLP073 DENSITY ALT 3600FT
3:00 pm
V
64 °F 20 mi 12.000 ft 190° 190° 8 - 16 kt METAR CYEG 252100Z 19008G16KT 20SM SCT056TCU BKN120 18/02 A2972 RMK TCU4AC3 SH DIST SE QUAD SLP076 DENSITY ALT 3500FT
2:00 pm
V
64 °F 20 mi 5.600 ft 210° 210° 9 kt METAR CYEG 252000Z 21009KT 160V220 20SM VCSH BKN056TCU BKN090 18/03 A2973 RMK TCU5AS2 SLP079 DENSITY ALT 3500FT
1:00 pm
V
63 °F 20 mi 5.600 ft Var Var 4 kt METAR CYEG 251900Z VRB04KT 20SM BKN056TCU BKN150 17/04 A2975 RMK TCU6AS1 SLP084 DENSITY ALT 3400FT
12:00 pm
V
61 °F 20 mi 25.000 ft 140° 140° 3 kt METAR CYEG 251800Z 14003KT 080V220 20SM SCT065TCU SCT150 BKN250 16/03 A2976 RMK TCU4AC1CI2 AC TR SLP087 DENSITY ALT 3300FT
11:00 am
V
59 °F 20 mi 25.000 ft Var Var 2 kt METAR CYEG 251700Z VRB02KT 20SM FEW050 SCT150 BKN250 15/06 A2977 RMK CU1AC3CI2 SLP094 DENSITY ALT 3100FT
10:00 am
V
55 °F 20 mi 25.000 ft 020° 020° 3 kt METAR CYEG 251600Z 02003KT 300V100 20SM FEW150 BKN250 13/08 A2978 RMK AS1CI4 SLP099 DENSITY ALT 2900FT
9:00 am
V
52 °F 20 mi - Var Var 2 kt METAR CYEG 251500Z VRB02KT 20SM FEW100 FEW150 SCT250 11/07 A2978 RMK AC1AS1CI2 AC TR SLP099 DENSITY ALT 2700FT
Starsze dane

Pobierz naszą aplikację

Łatwy dostęp do całej pogody lotniczej na telefonie komórkowym i tablecie.
Z wieloma funkcjami niedostępnymi na stronie internetowej, takimi jak wsparcie offline i osobista lista lotnisk.

My i osoby trzecie śledzimy twoje zachowanie w internecie na naszej stronie za pomocą plików cookie. Jeśli kontynuujesz, zakładamy, że zgadzasz się z naszą polityką plików cookie. Dowiedz się więcej